createdAt,value
2018-06-28T00:00:13.390Z,25.60
2018-06-28T00:02:52.125Z,25.59
2018-06-28T00:05:33.966Z,25.54
2018-06-28T00:08:13.232Z,25.48
2018-06-28T00:10:46.339Z,25.46
2018-06-28T00:13:22.000Z,25.51
2018-06-28T00:15:57.089Z,25.42
2018-06-28T00:18:30.010Z,25.51
2018-06-28T00:21:04.058Z,25.54
2018-06-28T00:23:39.890Z,25.52
2018-06-28T00:26:13.982Z,25.48
2018-06-28T00:28:46.633Z,25.41
2018-06-28T00:31:21.674Z,25.38
2018-06-28T00:33:56.597Z,25.40
2018-06-28T00:36:31.059Z,25.34
2018-06-28T00:39:05.957Z,25.24
2018-06-28T00:41:38.832Z,25.32
2018-06-28T00:44:12.697Z,24.55
2018-06-28T00:46:47.355Z,25.27
2018-06-28T00:49:27.667Z,25.32
2018-06-28T00:52:01.517Z,25.38
2018-06-28T00:54:39.038Z,25.29
2018-06-28T00:57:13.988Z,25.33
2018-06-28T00:59:46.348Z,25.32
2018-06-28T01:02:18.531Z,25.21
2018-06-28T01:04:51.767Z,25.26
2018-06-28T01:07:24.927Z,25.22
2018-06-28T01:09:57.528Z,25.21
2018-06-28T01:12:30.930Z,25.16
2018-06-28T01:15:06.190Z,25.19
2018-06-28T01:17:37.963Z,25.13
2018-06-28T01:20:09.509Z,25.11
2018-06-28T01:22:41.390Z,25.11
2018-06-28T01:25:13.968Z,25.05
2018-06-28T01:27:45.285Z,25.11
2018-06-28T01:30:16.787Z,25.06
2018-06-28T01:32:49.306Z,25.09
2018-06-28T01:35:22.195Z,25.10
2018-06-28T01:38:07.659Z,25.07
2018-06-28T01:40:39.481Z,24.94
2018-06-28T01:43:37.535Z,25.01
2018-06-28T01:46:08.964Z,25.01
2018-06-28T01:48:40.919Z,24.99
2018-06-28T01:51:13.317Z,25.08
2018-06-28T01:53:45.047Z,25.02
2018-06-28T01:56:16.723Z,25.03
2018-06-28T01:58:48.119Z,24.99
2018-06-28T02:01:20.416Z,24.98
2018-06-28T02:03:51.921Z,25.00
2018-06-28T02:06:23.201Z,24.96
2018-06-28T02:08:54.945Z,24.84
2018-06-28T02:11:26.833Z,24.87
2018-06-28T02:13:57.980Z,24.93
2018-06-28T02:16:29.777Z,24.78
2018-06-28T02:19:01.244Z,24.12
2018-06-28T02:21:32.947Z,24.68
2018-06-28T02:24:05.682Z,24.77
2018-06-28T02:26:37.936Z,24.78
2018-06-28T02:29:10.331Z,24.67
2018-06-28T02:31:41.697Z,24.71
2018-06-28T02:34:13.917Z,24.64
2018-06-28T02:36:45.779Z,24.66
2018-06-28T02:39:17.133Z,24.73
2018-06-28T02:41:48.460Z,24.66
2018-06-28T02:44:20.275Z,24.76
2018-06-28T02:46:51.993Z,24.66
2018-06-28T02:49:24.028Z,24.62
2018-06-28T02:51:55.751Z,24.73
2018-06-28T02:54:27.136Z,24.74
2018-06-28T02:56:58.562Z,24.73
2018-06-28T02:59:30.256Z,24.80
2018-06-28T03:02:01.906Z,24.70
2018-06-28T03:04:33.358Z,24.59
2018-06-28T03:07:08.242Z,24.61
2018-06-28T03:09:39.840Z,24.62
2018-06-28T03:12:11.754Z,24.71
2018-06-28T03:14:42.306Z,24.49
2018-06-28T03:17:14.136Z,24.38
2018-06-28T03:19:45.539Z,24.34
2018-06-28T03:22:17.484Z,24.35
2018-06-28T03:24:48.891Z,24.27
2018-06-28T03:27:20.657Z,24.30
2018-06-28T03:29:52.009Z,24.44
2018-06-28T03:32:23.350Z,24.43
2018-06-28T03:34:55.396Z,24.40
2018-06-28T03:37:26.847Z,24.37
2018-06-28T03:39:58.571Z,24.47
2018-06-28T03:42:30.023Z,24.38
2018-06-28T03:45:01.376Z,24.37
2018-06-28T03:47:35.242Z,24.42
2018-06-28T03:50:06.691Z,24.34
2018-06-28T03:52:38.070Z,24.49
2018-06-28T03:55:09.379Z,24.38
2018-06-28T03:57:40.868Z,24.39
2018-06-28T04:00:14.676Z,24.67
2018-06-28T04:06:31.889Z,25.18
2018-06-28T04:09:06.421Z,25.33
2018-06-28T04:11:38.709Z,25.61
2018-06-28T04:14:10.987Z,25.69
2018-06-28T04:16:42.520Z,25.98
2018-06-28T04:19:14.995Z,26.60
2018-06-28T04:21:47.000Z,27.23
2018-06-28T04:24:21.114Z,27.75
2018-06-28T04:26:52.744Z,28.08
2018-06-28T04:29:24.117Z,28.27
2018-06-28T04:31:57.773Z,28.59
2018-06-28T04:34:30.642Z,28.83
2018-06-28T04:37:03.253Z,29.02
2018-06-28T04:39:40.080Z,29.18
2018-06-28T04:42:17.364Z,29.39
2018-06-28T04:44:51.709Z,29.81
2018-06-28T04:47:23.406Z,30.11
2018-06-28T04:50:01.538Z,30.28
2018-06-28T04:52:33.587Z,30.33
2018-06-28T04:55:05.143Z,30.34
2018-06-28T04:57:37.046Z,30.62
2018-06-28T05:00:08.631Z,30.84
2018-06-28T05:02:41.060Z,30.89
2018-06-28T05:05:12.927Z,31.01
2018-06-28T05:07:44.766Z,31.10
2018-06-28T05:10:16.908Z,31.31
2018-06-28T05:12:49.401Z,31.27
2018-06-28T05:15:20.764Z,31.29
2018-06-28T05:17:52.109Z,31.18
2018-06-28T05:20:24.646Z,31.24
2018-06-28T05:22:56.788Z,31.44
2018-06-28T05:25:29.027Z,31.41
2018-06-28T05:28:01.121Z,31.63
2018-06-28T05:30:33.067Z,31.45
2018-06-28T05:33:05.802Z,31.42
2018-06-28T05:35:37.211Z,31.16
2018-06-28T05:38:09.313Z,30.92
2018-06-28T05:40:40.774Z,31.02
2018-06-28T05:43:12.659Z,31.46
2018-06-28T05:45:47.222Z,31.72
2018-06-28T05:48:20.486Z,32.04
2018-06-28T05:51:23.397Z,31.99
2018-06-28T05:53:54.758Z,31.94
2018-06-28T05:56:33.667Z,32.14
2018-06-28T05:59:07.253Z,32.10
2018-06-28T06:01:39.380Z,32.08
2018-06-28T06:04:11.712Z,31.97
2018-06-28T06:06:47.779Z,32.12
2018-06-28T06:09:31.970Z,32.05
2018-06-28T06:15:42.318Z,32.18
2018-06-28T06:18:14.818Z,32.14
2018-06-28T06:20:47.289Z,32.13
2018-06-28T06:23:19.875Z,32.61
2018-06-28T06:25:57.062Z,32.84
2018-06-28T06:28:32.621Z,32.97
2018-06-28T06:31:08.317Z,33.09
2018-06-28T06:33:42.487Z,33.07
2018-06-28T06:36:17.755Z,33.09
2018-06-28T06:38:49.609Z,33.09
2018-06-28T06:41:21.278Z,33.17
2018-06-28T06:43:56.054Z,33.47
2018-06-28T06:46:30.290Z,33.69
2018-06-28T06:51:56.305Z,33.76
2018-06-28T06:54:33.035Z,33.70
2018-06-28T06:57:08.607Z,33.68
2018-06-28T06:59:44.680Z,33.70
2018-06-28T07:02:18.335Z,33.86
2018-06-28T07:04:58.840Z,34.05
2018-06-28T07:07:35.208Z,34.07
2018-06-28T07:10:14.634Z,34.34
2018-06-28T07:12:47.838Z,34.59
2018-06-28T07:15:24.988Z,34.71
2018-06-28T07:17:59.063Z,34.82
2018-06-28T07:20:33.262Z,34.84
2018-06-28T07:23:14.631Z,34.76
2018-06-28T07:25:48.980Z,34.67
2018-06-28T07:31:05.394Z,34.85
2018-06-28T07:33:39.326Z,35.14
2018-06-28T07:36:11.511Z,34.94
2018-06-28T07:38:44.840Z,34.82
2018-06-28T07:41:21.789Z,34.78
2018-06-28T07:46:39.515Z,34.65
2018-06-28T07:49:14.711Z,34.99
2018-06-28T07:51:54.587Z,35.38
2018-06-28T07:54:27.626Z,35.69
2018-06-28T07:57:03.520Z,35.81
2018-06-28T07:59:42.550Z,35.92
2018-06-28T08:02:17.730Z,35.86
2018-06-28T08:04:57.839Z,35.82
2018-06-28T08:07:35.021Z,35.96
2018-06-28T08:10:08.616Z,36.18
2018-06-28T08:12:40.466Z,36.23
2018-06-28T08:15:15.134Z,36.25
2018-06-28T08:17:49.802Z,36.18
2018-06-28T08:20:29.643Z,36.26
2018-06-28T08:23:02.982Z,36.16
2018-06-28T08:25:36.668Z,36.36
2018-06-28T08:28:17.118Z,36.51
2018-06-28T08:30:52.510Z,36.36
2018-06-28T08:33:28.055Z,36.24
2018-06-28T08:36:02.903Z,36.19
2018-06-28T08:38:35.914Z,35.95
2018-06-28T08:41:20.329Z,35.20
2018-06-28T08:44:02.176Z,35.62
2018-06-28T08:46:35.400Z,35.73
2018-06-28T08:49:22.843Z,35.89
2018-06-28T08:51:59.219Z,36.22
2018-06-28T08:54:38.612Z,36.18
2018-06-28T08:57:17.380Z,36.09
2018-06-28T08:59:53.559Z,35.93
2018-06-28T09:02:27.726Z,35.94
2018-06-28T09:05:07.473Z,35.93
2018-06-28T09:07:43.575Z,36.00
2018-06-28T09:10:16.465Z,35.70
2018-06-28T09:12:51.057Z,35.68
2018-06-28T09:15:23.843Z,35.79
2018-06-28T09:18:19.372Z,35.69
2018-06-28T09:21:04.790Z,35.88
2018-06-28T09:23:47.113Z,35.78
2018-06-28T09:26:23.632Z,35.92
2018-06-28T09:28:58.625Z,35.85
2018-06-28T09:37:58.189Z,36.21
2018-06-28T09:40:44.419Z,36.42
2018-06-28T09:43:27.718Z,36.54
2018-06-28T09:48:53.978Z,36.79
2018-06-28T09:51:31.374Z,36.80
2018-06-28T09:54:09.250Z,37.06
2018-06-28T10:08:10.805Z,36.59
2018-06-28T10:13:43.855Z,36.05
2018-06-28T10:16:37.652Z,36.36
2018-06-28T10:19:22.038Z,36.52
2018-06-28T10:22:07.425Z,36.42
2018-06-28T10:27:53.467Z,35.80
2018-06-28T10:33:53.583Z,35.81
2018-06-28T10:36:39.840Z,35.73
2018-06-28T10:45:41.271Z,35.93
2018-06-28T10:48:28.424Z,35.70
2018-06-28T10:51:15.046Z,35.57
2018-06-28T10:54:00.908Z,35.40
2018-06-28T10:56:40.123Z,36.24
2018-06-28T11:02:14.363Z,36.21
2018-06-28T11:05:02.840Z,36.34
2018-06-28T13:18:44.497Z,38.97
2018-06-28T13:21:17.063Z,39.01
2018-06-28T13:23:59.254Z,39.09
2018-06-28T13:29:05.355Z,39.03
2018-06-28T13:31:37.569Z,39.31
2018-06-28T13:34:09.645Z,39.32
2018-06-28T13:36:42.934Z,39.38
2018-06-28T13:39:16.825Z,39.24
2018-06-28T13:41:49.594Z,39.16
2018-06-28T13:44:25.416Z,39.34
2018-06-28T13:46:59.769Z,39.20
2018-06-28T13:49:34.216Z,38.90
2018-06-28T13:52:19.138Z,39.05
2018-06-28T13:54:55.876Z,39.43
2018-06-28T14:00:14.784Z,39.66
2018-06-28T14:02:48.669Z,39.81
2018-06-28T14:05:24.538Z,40.06
2018-06-28T14:08:02.743Z,39.93
2018-06-28T14:10:38.615Z,40.17
2018-06-28T14:13:12.693Z,40.16
2018-06-28T14:16:16.307Z,40.06
2018-06-28T14:18:54.755Z,39.46
2018-06-28T14:21:29.041Z,39.22
2018-06-28T14:24:02.776Z,38.90
2018-06-28T14:26:36.222Z,38.46
2018-06-28T14:29:12.085Z,38.13
2018-06-28T14:31:49.135Z,37.89
2018-06-28T14:34:22.430Z,37.90
2018-06-28T14:36:54.924Z,37.77
2018-06-28T14:39:28.440Z,37.71
2018-06-28T14:42:02.448Z,37.28
2018-06-28T14:44:35.347Z,37.13
2018-06-28T14:47:07.020Z,36.88
2018-06-28T14:49:43.241Z,36.74
2018-06-28T14:52:16.253Z,36.70
2018-06-28T14:54:47.936Z,36.46
2018-06-28T14:57:23.230Z,36.57
2018-06-28T15:00:00.838Z,36.65
2018-06-28T15:02:41.179Z,36.60
2018-06-28T15:05:15.373Z,36.46
2018-06-28T15:07:52.568Z,36.52
2018-06-28T15:10:26.677Z,36.61
2018-06-28T15:12:59.389Z,36.66
2018-06-28T15:15:36.527Z,36.63
2018-06-28T15:18:09.662Z,36.57
2018-06-28T15:20:41.267Z,36.46
2018-06-28T15:23:16.579Z,36.61
2018-06-28T15:25:48.720Z,36.62
2018-06-28T15:28:21.536Z,36.49
2018-06-28T15:30:54.100Z,36.95
2018-06-28T15:33:26.561Z,37.13
2018-06-28T15:36:20.215Z,37.56
2018-06-28T15:38:54.063Z,37.60
2018-06-28T15:41:25.568Z,37.92
2018-06-28T15:44:06.829Z,37.98
2018-06-28T15:46:38.939Z,37.99
2018-06-28T15:49:13.997Z,37.89
2018-06-28T15:51:49.309Z,37.90
2018-06-28T15:54:23.405Z,38.19
2018-06-28T15:56:59.793Z,38.36
2018-06-28T15:59:47.624Z,38.77
2018-06-28T16:02:35.392Z,38.54
2018-06-28T16:05:10.172Z,38.13
2018-06-28T16:07:48.966Z,37.74
2018-06-28T16:10:22.181Z,37.42
2018-06-28T16:12:57.053Z,37.15
2018-06-28T16:15:30.417Z,36.86
2018-06-28T16:18:06.093Z,36.65
2018-06-28T16:20:39.937Z,36.62
2018-06-28T16:23:25.697Z,36.33
2018-06-28T16:25:59.988Z,36.18
2018-06-28T16:28:32.456Z,36.16
2018-06-28T16:31:06.875Z,36.02
2018-06-28T16:33:42.442Z,35.88
2018-06-28T16:36:14.913Z,35.68
2018-06-28T16:38:48.529Z,36.05
2018-06-28T16:41:22.085Z,36.50
2018-06-28T16:43:57.862Z,37.32
2018-06-28T16:46:34.423Z,37.63
2018-06-28T16:49:08.540Z,37.75
2018-06-28T16:51:43.107Z,37.72
2018-06-28T16:54:18.024Z,37.96
2018-06-28T16:59:41.558Z,38.05
2018-06-28T17:02:15.461Z,38.11
2018-06-28T17:04:48.921Z,38.04
2018-06-28T17:07:23.486Z,37.91
2018-06-28T17:09:58.602Z,37.75
2018-06-28T17:12:32.960Z,37.63
2018-06-28T17:15:09.465Z,37.39
2018-06-28T17:17:42.443Z,37.38
2018-06-28T17:20:16.282Z,37.34
2018-06-28T17:22:53.750Z,37.24
2018-06-28T17:25:25.556Z,37.31
2018-06-28T17:28:01.845Z,37.40
2018-06-28T17:30:34.452Z,37.38
2018-06-28T17:33:11.142Z,37.10
2018-06-28T17:35:43.096Z,36.84
2018-06-28T17:38:21.719Z,36.34
2018-06-28T17:41:00.350Z,35.95
2018-06-28T17:43:54.341Z,35.69
2018-06-28T17:46:32.050Z,35.58
2018-06-28T17:52:01.750Z,35.38
2018-06-28T17:54:50.996Z,35.26
2018-06-28T17:57:25.424Z,35.14
2018-06-28T18:00:00.081Z,35.09
2018-06-28T18:02:33.329Z,35.06
2018-06-28T18:05:11.726Z,35.04
2018-06-28T18:07:44.685Z,35.08
2018-06-28T18:10:28.260Z,34.82
2018-06-28T18:13:04.084Z,34.81
2018-06-28T18:15:39.846Z,34.67
2018-06-28T18:18:13.031Z,34.68
2018-06-28T18:20:47.598Z,34.64
2018-06-28T18:23:22.371Z,34.57
2018-06-28T18:25:56.260Z,34.49
2018-06-28T18:28:31.605Z,34.40
2018-06-28T18:31:04.198Z,34.30
2018-06-28T18:33:37.988Z,34.32
2018-06-28T18:36:12.213Z,34.17
2018-06-28T18:38:47.097Z,33.95
2018-06-28T18:41:20.097Z,34.05
2018-06-28T18:43:55.481Z,34.05
2018-06-28T18:46:28.157Z,33.95
2018-06-28T18:49:09.058Z,33.86
2018-06-28T18:51:43.281Z,33.91
2018-06-28T18:54:18.987Z,33.84
2018-06-28T18:56:57.470Z,33.82
2018-06-28T18:59:30.542Z,33.84
2018-06-28T19:02:09.293Z,33.67
2018-06-28T19:04:49.270Z,33.68
2018-06-28T19:07:23.416Z,33.56
2018-06-28T19:10:02.463Z,33.62
2018-06-28T19:12:37.270Z,33.54
2018-06-28T19:15:18.697Z,33.52
2018-06-28T19:17:52.798Z,33.43
2018-06-28T19:20:29.220Z,33.41
2018-06-28T19:23:06.567Z,33.45
2018-06-28T19:25:38.497Z,33.36
2018-06-28T19:28:10.780Z,33.36
2018-06-28T19:30:51.129Z,33.30
2018-06-28T19:33:24.201Z,33.38
2018-06-28T19:35:59.477Z,33.36
2018-06-28T19:38:37.571Z,33.26
2018-06-28T19:41:16.650Z,33.26
2018-06-28T19:43:56.831Z,33.22
2018-06-28T19:49:15.209Z,33.22
2018-06-28T19:51:52.822Z,33.18
2018-06-28T19:54:27.450Z,33.21
2018-06-28T19:57:00.740Z,33.18
2018-06-28T19:59:36.234Z,33.16
2018-06-28T20:02:12.783Z,33.10
2018-06-28T20:04:47.746Z,33.07
2018-06-28T20:07:19.295Z,33.05
2018-06-28T20:09:53.566Z,33.03
2018-06-28T20:12:36.882Z,32.97
2018-06-28T20:15:17.922Z,32.90
2018-06-28T20:18:05.728Z,32.82
2018-06-28T20:20:38.648Z,32.75
2018-06-28T20:23:12.752Z,32.77
2018-06-28T20:25:47.868Z,32.72
2018-06-28T20:28:29.024Z,32.68
2018-06-28T20:31:06.418Z,32.66
2018-06-28T20:33:55.008Z,32.68
2018-06-28T20:36:33.965Z,32.64
2018-06-28T20:39:11.162Z,32.70
2018-06-28T20:41:52.653Z,32.65
2018-06-28T20:44:34.460Z,32.60
2018-06-28T20:47:07.806Z,32.68
2018-06-28T20:49:45.221Z,32.65
2018-06-28T20:52:21.864Z,32.81
2018-06-28T20:54:55.266Z,32.82
2018-06-28T20:57:28.977Z,32.73
2018-06-28T21:00:05.400Z,32.77
2018-06-28T21:02:43.827Z,32.76
2018-06-28T21:05:18.280Z,32.71
2018-06-28T21:07:50.394Z,32.58
2018-06-28T21:10:22.298Z,32.55
2018-06-28T21:12:56.411Z,32.60
2018-06-28T21:15:31.621Z,32.58
2018-06-28T21:18:12.577Z,32.42
2018-06-28T21:20:46.658Z,32.22
2018-06-28T21:23:23.150Z,32.14
2018-06-28T21:25:58.711Z,31.94
2018-06-28T21:28:32.262Z,31.91
2018-06-28T21:31:09.805Z,31.78
2018-06-28T21:36:25.395Z,31.68
2018-06-28T21:38:59.194Z,31.72
2018-06-28T21:41:41.020Z,31.74
2018-06-28T21:44:12.417Z,31.80
2018-06-28T21:46:47.992Z,31.71
2018-06-28T21:49:20.458Z,31.70
2018-06-28T21:51:53.196Z,31.73
2018-06-28T21:54:31.058Z,31.71
2018-06-28T21:57:07.597Z,31.71
2018-06-28T21:59:44.008Z,31.80
2018-06-28T22:02:17.972Z,31.84
2018-06-28T22:05:00.262Z,32.11
2018-06-28T22:07:31.576Z,32.11
2018-06-28T22:10:05.522Z,32.17
2018-06-28T22:12:40.610Z,32.34
2018-06-28T22:15:17.091Z,32.35
2018-06-28T22:17:51.050Z,32.31
2018-06-28T22:20:25.452Z,32.39
2018-06-28T22:22:58.272Z,32.41
2018-06-28T22:25:31.168Z,32.57
2018-06-28T22:28:08.500Z,32.50
2018-06-28T22:30:40.785Z,32.63
2018-06-28T22:33:14.214Z,32.31
2018-06-28T22:35:48.134Z,32.00
2018-06-28T22:38:21.395Z,32.06
2018-06-28T22:41:10.688Z,31.96
2018-06-28T22:46:24.241Z,31.86
2018-06-28T22:49:05.276Z,31.70
2018-06-28T22:51:43.438Z,31.44
2018-06-28T22:54:17.763Z,31.55
2018-06-28T22:56:49.526Z,31.75
2018-06-28T22:59:21.732Z,31.95
2018-06-28T23:01:53.895Z,31.99
2018-06-28T23:04:26.603Z,32.06
2018-06-28T23:06:59.612Z,32.18
2018-06-28T23:09:32.805Z,32.16
2018-06-28T23:12:05.829Z,32.17
2018-06-28T23:14:38.820Z,32.26
2018-06-28T23:17:11.877Z,32.24
2018-06-28T23:19:47.330Z,32.17
2018-06-28T23:23:01.486Z,32.14
2018-06-28T23:25:40.035Z,32.10
2018-06-28T23:28:16.923Z,31.98
2018-06-28T23:30:50.879Z,31.87
2018-06-28T23:33:24.602Z,31.75
2018-06-28T23:35:57.125Z,31.70
2018-06-28T23:38:31.091Z,31.75
2018-06-28T23:41:08.924Z,31.59
2018-06-28T23:43:43.732Z,31.49
2018-06-28T23:46:16.004Z,31.36
2018-06-28T23:48:51.230Z,31.18
2018-06-28T23:51:23.574Z,31.12
2018-06-28T23:53:56.961Z,31.11
2018-06-28T23:56:27.934Z,31.00
2018-06-28T23:59:01.805Z,30.88
